sensor_id;sensor_type;location;lat;lon;timestamp;temperature;humidity
37530;DHT22;23374;52.758;6.872;2023-01-08T00:00:08;10.40;1.00
37530;DHT22;23374;52.758;6.872;2023-01-08T00:02:28;10.40;1.00
37530;DHT22;23374;52.758;6.872;2023-01-08T00:04:49;10.40;1.00
37530;DHT22;23374;52.758;6.872;2023-01-08T00:07:09;10.40;1.00
37530;DHT22;23374;52.758;6.872;2023-01-08T00:09:30;10.40;1.00
37530;DHT22;23374;52.758;6.872;2023-01-08T00:11:50;10.40;1.00
37530;DHT22;23374;52.758;6.872;2023-01-08T00:14:10;10.40;1.00
37530;DHT22;23374;52.758;6.872;2023-01-08T00:16:31;10.40;1.00
37530;DHT22;23374;52.758;6.872;2023-01-08T00:18:51;10.40;1.00
37530;DHT22;23374;52.758;6.872;2023-01-08T00:21:12;10.40;1.00
37530;DHT22;23374;52.758;6.872;2023-01-08T00:23:33;10.40;1.00
37530;DHT22;23374;52.758;6.872;2023-01-08T00:25:53;10.40;1.00
37530;DHT22;23374;52.758;6.872;2023-01-08T00:28:13;10.40;1.00
37530;DHT22;23374;52.758;6.872;2023-01-08T00:30:35;10.40;1.00
37530;DHT22;23374;52.758;6.872;2023-01-08T00:32:56;10.40;1.00
37530;DHT22;23374;52.758;6.872;2023-01-08T00:35:16;10.40;1.00
37530;DHT22;23374;52.758;6.872;2023-01-08T00:37:37;10.40;1.00
37530;DHT22;23374;52.758;6.872;2023-01-08T00:39:57;10.40;1.00
37530;DHT22;23374;52.758;6.872;2023-01-08T00:42:17;10.40;1.00
37530;DHT22;23374;52.758;6.872;2023-01-08T00:44:38;10.40;1.00
37530;DHT22;23374;52.758;6.872;2023-01-08T00:46:58;10.40;1.00
37530;DHT22;23374;52.758;6.872;2023-01-08T00:49:19;10.40;1.00
37530;DHT22;23374;52.758;6.872;2023-01-08T00:51:39;10.40;1.00
37530;DHT22;23374;52.758;6.872;2023-01-08T00:53:59;10.40;1.00
37530;DHT22;23374;52.758;6.872;2023-01-08T00:56:19;10.40;1.00
37530;DHT22;23374;52.758;6.872;2023-01-08T00:58:40;10.40;1.00
37530;DHT22;23374;52.758;6.872;2023-01-08T01:01:00;10.40;1.00
37530;DHT22;23374;52.758;6.872;2023-01-08T01:03:21;10.40;1.00
37530;DHT22;23374;52.758;6.872;2023-01-08T01:05:41;10.40;1.00
37530;DHT22;23374;52.758;6.872;2023-01-08T01:08:02;10.40;1.00
37530;DHT22;23374;52.758;6.872;2023-01-08T01:10:23;10.40;1.00
37530;DHT22;23374;52.758;6.872;2023-01-08T01:12:44;10.40;1.00
37530;DHT22;23374;52.758;6.872;2023-01-08T01:15:11;10.40;1.00
37530;DHT22;23374;52.758;6.872;2023-01-08T01:17:36;10.40;1.00
37530;DHT22;23374;52.758;6.872;2023-01-08T01:19:57;10.40;1.00
37530;DHT22;23374;52.758;6.872;2023-01-08T01:22:17;10.30;1.00
37530;DHT22;23374;52.758;6.872;2023-01-08T01:24:37;10.40;1.00
37530;DHT22;23374;52.758;6.872;2023-01-08T01:26:57;10.40;1.00
37530;DHT22;23374;52.758;6.872;2023-01-08T01:29:18;10.30;1.00
37530;DHT22;23374;52.758;6.872;2023-01-08T01:31:38;10.30;1.00
37530;DHT22;23374;52.758;6.872;2023-01-08T01:33:58;10.30;1.00
37530;DHT22;23374;52.758;6.872;2023-01-08T01:36:22;10.40;1.00
37530;DHT22;23374;52.758;6.872;2023-01-08T01:38:47;10.40;1.00
37530;DHT22;23374;52.758;6.872;2023-01-08T01:42:37;10.30;1.00
37530;DHT22;23374;52.758;6.872;2023-01-08T01:45:05;10.20;1.00
37530;DHT22;23374;52.758;6.872;2023-01-08T01:47:37;10.00;1.00
37530;DHT22;23374;52.758;6.872;2023-01-08T01:50:20;10.00;1.00
37530;DHT22;23374;52.758;6.872;2023-01-08T01:52:56;9.90;1.00
37530;DHT22;23374;52.758;6.872;2023-01-08T01:55:18;9.70;1.00
37530;DHT22;23374;52.758;6.872;2023-01-08T01:57:39;9.60;1.00
37530;DHT22;23374;52.758;6.872;2023-01-08T02:00:03;9.60;1.00
37530;DHT22;23374;52.758;6.872;2023-01-08T02:02:24;9.50;1.00
37530;DHT22;23374;52.758;6.872;2023-01-08T02:04:45;9.40;36.60
37530;DHT22;23374;52.758;6.872;2023-01-08T02:09:06;9.40;73.70
37530;DHT22;23374;52.758;6.872;2023-01-08T02:13:28;9.30;99.90
37530;DHT22;23374;52.758;6.872;2023-01-08T02:16:16;9.20;99.90
37530;DHT22;23374;52.758;6.872;2023-01-08T02:23:33;9.20;99.90
37530;DHT22;23374;52.758;6.872;2023-01-08T02:26:23;9.20;99.90
37530;DHT22;23374;52.758;6.872;2023-01-08T02:29:10;9.20;99.90
37530;DHT22;23374;52.758;6.872;2023-01-08T02:31:38;9.20;99.90
37530;DHT22;23374;52.758;6.872;2023-01-08T02:33:59;9.20;99.90
37530;DHT22;23374;52.758;6.872;2023-01-08T02:36:50;9.20;99.90
37530;DHT22;23374;52.758;6.872;2023-01-08T02:43:44;9.20;99.90
37530;DHT22;23374;52.758;6.872;2023-01-08T02:46:10;9.20;99.90
37530;DHT22;23374;52.758;6.872;2023-01-08T02:48:50;9.20;99.90
37530;DHT22;23374;52.758;6.872;2023-01-08T02:52:11;9.20;99.90
37530;DHT22;23374;52.758;6.872;2023-01-08T02:54:34;9.20;99.90
37530;DHT22;23374;52.758;6.872;2023-01-08T02:57:20;9.30;99.90
37530;DHT22;23374;52.758;6.872;2023-01-08T02:59:43;9.30;99.90
37530;DHT22;23374;52.758;6.872;2023-01-08T03:02:04;9.30;99.90
37530;DHT22;23374;52.758;6.872;2023-01-08T03:04:27;9.30;99.90
37530;DHT22;23374;52.758;6.872;2023-01-08T03:06:50;9.40;99.90
37530;DHT22;23374;52.758;6.872;2023-01-08T03:09:11;9.40;99.90
37530;DHT22;23374;52.758;6.872;2023-01-08T03:11:40;9.50;99.90
37530;DHT22;23374;52.758;6.872;2023-01-08T03:14:22;9.50;99.90
37530;DHT22;23374;52.758;6.872;2023-01-08T03:17:05;9.50;99.90
37530;DHT22;23374;52.758;6.872;2023-01-08T03:19:46;9.60;99.90
37530;DHT22;23374;52.758;6.872;2023-01-08T03:22:14;9.60;99.90
37530;DHT22;23374;52.758;6.872;2023-01-08T03:24:37;9.60;99.90
37530;DHT22;23374;52.758;6.872;2023-01-08T03:27:01;9.70;99.90
37530;DHT22;23374;52.758;6.872;2023-01-08T03:29:23;9.70;99.90
37530;DHT22;23374;52.758;6.872;2023-01-08T03:31:46;9.70;99.90
37530;DHT22;23374;52.758;6.872;2023-01-08T03:34:09;9.70;99.90
37530;DHT22;23374;52.758;6.872;2023-01-08T03:36:32;9.70;99.90
37530;DHT22;23374;52.758;6.872;2023-01-08T03:39:09;9.80;99.90
37530;DHT22;23374;52.758;6.872;2023-01-08T03:41:32;9.80;99.90
37530;DHT22;23374;52.758;6.872;2023-01-08T03:43:55;9.80;99.90
37530;DHT22;23374;52.758;6.872;2023-01-08T03:46:31;9.80;99.90
37530;DHT22;23374;52.758;6.872;2023-01-08T03:48:52;9.80;99.90
37530;DHT22;23374;52.758;6.872;2023-01-08T03:51:13;9.80;99.90
37530;DHT22;23374;52.758;6.872;2023-01-08T03:53:34;9.80;99.90
37530;DHT22;23374;52.758;6.872;2023-01-08T03:55:55;9.80;99.90
37530;DHT22;23374;52.758;6.872;2023-01-08T03:58:16;9.80;99.90
37530;DHT22;23374;52.758;6.872;2023-01-08T04:00:37;9.70;99.90
37530;DHT22;23374;52.758;6.872;2023-01-08T04:02:57;9.70;99.90
37530;DHT22;23374;52.758;6.872;2023-01-08T04:05:18;9.70;99.90
37530;DHT22;23374;52.758;6.872;2023-01-08T04:07:38;9.70;99.90
37530;DHT22;23374;52.758;6.872;2023-01-08T04:09:59;9.70;99.90
37530;DHT22;23374;52.758;6.872;2023-01-08T04:12:19;9.70;99.90
37530;DHT22;23374;52.758;6.872;2023-01-08T04:14:40;9.70;99.90
37530;DHT22;23374;52.758;6.872;2023-01-08T04:17:00;9.70;99.90
37530;DHT22;23374;52.758;6.872;2023-01-08T04:19:21;9.60;99.90
37530;DHT22;23374;52.758;6.872;2023-01-08T04:21:41;9.60;99.90
37530;DHT22;23374;52.758;6.872;2023-01-08T04:24:01;9.50;99.90
37530;DHT22;23374;52.758;6.872;2023-01-08T04:26:21;9.50;99.90
37530;DHT22;23374;52.758;6.872;2023-01-08T04:28:42;9.50;99.90
37530;DHT22;23374;52.758;6.872;2023-01-08T04:31:09;9.50;99.90
37530;DHT22;23374;52.758;6.872;2023-01-08T04:33:29;9.40;99.90
37530;DHT22;23374;52.758;6.872;2023-01-08T04:35:50;9.40;99.90
37530;DHT22;23374;52.758;6.872;2023-01-08T04:38:11;9.50;99.90
37530;DHT22;23374;52.758;6.872;2023-01-08T04:40:32;9.50;99.90
37530;DHT22;23374;52.758;6.872;2023-01-08T04:42:52;9.50;99.90
37530;DHT22;23374;52.758;6.872;2023-01-08T04:45:13;9.40;99.90
37530;DHT22;23374;52.758;6.872;2023-01-08T04:47:34;9.50;99.90
37530;DHT22;23374;52.758;6.872;2023-01-08T04:49:54;9.40;99.90
37530;DHT22;23374;52.758;6.872;2023-01-08T04:52:15;9.40;99.90
37530;DHT22;23374;52.758;6.872;2023-01-08T04:54:35;9.40;99.90
37530;DHT22;23374;52.758;6.872;2023-01-08T04:56:56;9.30;99.90
37530;DHT22;23374;52.758;6.872;2023-01-08T04:59:16;9.30;99.90
37530;DHT22;23374;52.758;6.872;2023-01-08T05:03:17;9.30;99.90
37530;DHT22;23374;52.758;6.872;2023-01-08T05:05:38;9.30;99.90
37530;DHT22;23374;52.758;6.872;2023-01-08T05:07:58;9.20;99.90
37530;DHT22;23374;52.758;6.872;2023-01-08T05:10:19;9.20;99.90
37530;DHT22;23374;52.758;6.872;2023-01-08T05:12:39;9.20;99.90
37530;DHT22;23374;52.758;6.872;2023-01-08T05:15:00;9.30;99.90
37530;DHT22;23374;52.758;6.872;2023-01-08T05:17:20;9.30;99.90
37530;DHT22;23374;52.758;6.872;2023-01-08T05:19:41;9.20;99.90
37530;DHT22;23374;52.758;6.872;2023-01-08T05:22:01;9.20;99.90
37530;DHT22;23374;52.758;6.872;2023-01-08T05:24:22;9.20;99.90
37530;DHT22;23374;52.758;6.872;2023-01-08T05:26:43;9.20;99.90
37530;DHT22;23374;52.758;6.872;2023-01-08T05:29:03;9.10;99.90
37530;DHT22;23374;52.758;6.872;2023-01-08T05:31:24;9.10;99.90
37530;DHT22;23374;52.758;6.872;2023-01-08T05:33:44;9.10;99.90
37530;DHT22;23374;52.758;6.872;2023-01-08T05:36:09;9.10;99.90
37530;DHT22;23374;52.758;6.872;2023-01-08T05:38:30;9.00;99.90
37530;DHT22;23374;52.758;6.872;2023-01-08T05:40:52;9.00;99.90
37530;DHT22;23374;52.758;6.872;2023-01-08T05:43:12;9.00;99.90
37530;DHT22;23374;52.758;6.872;2023-01-08T05:45:33;9.00;99.90
37530;DHT22;23374;52.758;6.872;2023-01-08T05:47:54;9.00;99.90
37530;DHT22;23374;52.758;6.872;2023-01-08T05:50:14;8.90;99.90
37530;DHT22;23374;52.758;6.872;2023-01-08T05:52:34;8.90;99.90
37530;DHT22;23374;52.758;6.872;2023-01-08T05:54:55;8.90;99.90
37530;DHT22;23374;52.758;6.872;2023-01-08T05:57:16;8.90;99.90
37530;DHT22;23374;52.758;6.872;2023-01-08T05:59:36;8.90;99.90
37530;DHT22;23374;52.758;6.872;2023-01-08T06:01:56;8.90;99.90
37530;DHT22;23374;52.758;6.872;2023-01-08T06:04:17;8.90;99.90
37530;DHT22;23374;52.758;6.872;2023-01-08T06:06:37;8.90;99.90
37530;DHT22;23374;52.758;6.872;2023-01-08T06:08:57;8.90;99.90
37530;DHT22;23374;52.758;6.872;2023-01-08T06:11:17;8.90;99.90
37530;DHT22;23374;52.758;6.872;2023-01-08T06:13:41;8.90;99.90
37530;DHT22;23374;52.758;6.872;2023-01-08T06:16:03;8.90;99.90
37530;DHT22;23374;52.758;6.872;2023-01-08T06:18:23;8.80;99.90
37530;DHT22;23374;52.758;6.872;2023-01-08T06:20:44;8.80;99.90
37530;DHT22;23374;52.758;6.872;2023-01-08T06:23:04;8.80;99.90
37530;DHT22;23374;52.758;6.872;2023-01-08T06:25:24;8.80;99.90
37530;DHT22;23374;52.758;6.872;2023-01-08T06:27:48;8.80;99.90
37530;DHT22;23374;52.758;6.872;2023-01-08T06:30:09;8.80;99.90
37530;DHT22;23374;52.758;6.872;2023-01-08T06:32:30;8.80;99.90
37530;DHT22;23374;52.758;6.872;2023-01-08T06:34:50;8.80;99.90
37530;DHT22;23374;52.758;6.872;2023-01-08T06:37:10;8.80;99.90
37530;DHT22;23374;52.758;6.872;2023-01-08T06:39:30;8.80;99.90
37530;DHT22;23374;52.758;6.872;2023-01-08T06:41:50;8.80;99.90
37530;DHT22;23374;52.758;6.872;2023-01-08T06:44:11;8.80;99.90
37530;DHT22;23374;52.758;6.872;2023-01-08T06:48:13;8.80;99.90
37530;DHT22;23374;52.758;6.872;2023-01-08T06:50:34;8.80;99.90
37530;DHT22;23374;52.758;6.872;2023-01-08T06:52:55;8.80;99.90
37530;DHT22;23374;52.758;6.872;2023-01-08T06:55:16;8.80;99.90
37530;DHT22;23374;52.758;6.872;2023-01-08T06:57:37;8.80;99.90
37530;DHT22;23374;52.758;6.872;2023-01-08T07:00:00;8.80;99.90
37530;DHT22;23374;52.758;6.872;2023-01-08T07:02:20;8.80;99.90
37530;DHT22;23374;52.758;6.872;2023-01-08T07:04:41;8.80;99.90
37530;DHT22;23374;52.758;6.872;2023-01-08T07:07:01;8.80;99.90
37530;DHT22;23374;52.758;6.872;2023-01-08T07:09:21;8.80;99.90
37530;DHT22;23374;52.758;6.872;2023-01-08T07:11:42;8.80;99.90
37530;DHT22;23374;52.758;6.872;2023-01-08T07:14:02;8.70;99.90
37530;DHT22;23374;52.758;6.872;2023-01-08T07:16:22;8.80;99.90
37530;DHT22;23374;52.758;6.872;2023-01-08T07:18:42;8.70;99.90
37530;DHT22;23374;52.758;6.872;2023-01-08T07:21:05;8.70;99.90
37530;DHT22;23374;52.758;6.872;2023-01-08T07:23:25;8.70;99.90
37530;DHT22;23374;52.758;6.872;2023-01-08T07:25:49;8.80;99.90
37530;DHT22;23374;52.758;6.872;2023-01-08T07:28:11;8.80;99.90
37530;DHT22;23374;52.758;6.872;2023-01-08T07:30:32;8.80;99.90
37530;DHT22;23374;52.758;6.872;2023-01-08T07:32:52;8.80;99.90
37530;DHT22;23374;52.758;6.872;2023-01-08T07:35:13;8.80;99.90
37530;DHT22;23374;52.758;6.872;2023-01-08T07:37:33;8.70;99.90
37530;DHT22;23374;52.758;6.872;2023-01-08T07:39:58;8.70;99.90
37530;DHT22;23374;52.758;6.872;2023-01-08T07:42:19;8.70;99.90
37530;DHT22;23374;52.758;6.872;2023-01-08T07:44:39;8.70;99.90
37530;DHT22;23374;52.758;6.872;2023-01-08T07:46:59;8.70;99.90
37530;DHT22;23374;52.758;6.872;2023-01-08T07:49:20;8.70;99.90
37530;DHT22;23374;52.758;6.872;2023-01-08T07:51:41;8.70;99.90
37530;DHT22;23374;52.758;6.872;2023-01-08T07:54:01;8.70;99.90
37530;DHT22;23374;52.758;6.872;2023-01-08T07:56:23;8.70;99.90
37530;DHT22;23374;52.758;6.872;2023-01-08T07:58:44;8.70;99.90
37530;DHT22;23374;52.758;6.872;2023-01-08T08:01:09;8.70;99.90
37530;DHT22;23374;52.758;6.872;2023-01-08T08:03:29;8.70;99.90
37530;DHT22;23374;52.758;6.872;2023-01-08T08:05:50;8.60;99.90
37530;DHT22;23374;52.758;6.872;2023-01-08T08:08:12;8.60;99.90
37530;DHT22;23374;52.758;6.872;2023-01-08T08:10:34;8.60;86.70
37530;DHT22;23374;52.758;6.872;2023-01-08T08:12:54;8.60;58.40
37530;DHT22;23374;52.758;6.872;2023-01-08T08:15:14;8.60;61.80
37530;DHT22;23374;52.758;6.872;2023-01-08T08:17:34;8.50;45.60
37530;DHT22;23374;52.758;6.872;2023-01-08T08:19:55;8.50;43.30
37530;DHT22;23374;52.758;6.872;2023-01-08T08:22:17;8.50;38.90
37530;DHT22;23374;52.758;6.872;2023-01-08T08:24:38;8.50;22.30
37530;DHT22;23374;52.758;6.872;2023-01-08T08:26:59;8.50;40.20
37530;DHT22;23374;52.758;6.872;2023-01-08T08:29:19;8.50;23.20
37530;DHT22;23374;52.758;6.872;2023-01-08T08:31:39;8.40;8.50
37530;DHT22;23374;52.758;6.872;2023-01-08T08:34:00;8.40;17.00
37530;DHT22;23374;52.758;6.872;2023-01-08T08:36:20;8.50;15.50
37530;DHT22;23374;52.758;6.872;2023-01-08T08:38:41;8.40;1.00
37530;DHT22;23374;52.758;6.872;2023-01-08T08:41:01;8.40;7.40
37530;DHT22;23374;52.758;6.872;2023-01-08T08:43:22;8.40;1.50
37530;DHT22;23374;52.758;6.872;2023-01-08T08:45:42;8.40;1.00
37530;DHT22;23374;52.758;6.872;2023-01-08T08:48:06;8.40;1.00
37530;DHT22;23374;52.758;6.872;2023-01-08T08:50:26;8.50;1.00
37530;DHT22;23374;52.758;6.872;2023-01-08T08:52:47;8.50;1.00
37530;DHT22;23374;52.758;6.872;2023-01-08T08:55:08;8.50;1.00
37530;DHT22;23374;52.758;6.872;2023-01-08T08:57:32;8.50;1.00
37530;DHT22;23374;52.758;6.872;2023-01-08T08:59:52;8.50;1.00
37530;DHT22;23374;52.758;6.872;2023-01-08T09:02:13;8.50;1.00
37530;DHT22;23374;52.758;6.872;2023-01-08T09:04:34;8.50;1.00
37530;DHT22;23374;52.758;6.872;2023-01-08T09:06:55;8.50;1.00
37530;DHT22;23374;52.758;6.872;2023-01-08T09:09:15;8.50;1.00
37530;DHT22;23374;52.758;6.872;2023-01-08T09:11:36;8.50;1.00
37530;DHT22;23374;52.758;6.872;2023-01-08T09:13:57;8.50;1.00
37530;DHT22;23374;52.758;6.872;2023-01-08T09:16:17;8.50;1.00
37530;DHT22;23374;52.758;6.872;2023-01-08T09:18:38;8.50;1.00
37530;DHT22;23374;52.758;6.872;2023-01-08T09:21:04;8.50;1.00
37530;DHT22;23374;52.758;6.872;2023-01-08T09:23:25;8.50;1.00
37530;DHT22;23374;52.758;6.872;2023-01-08T09:25:45;8.50;1.00
37530;DHT22;23374;52.758;6.872;2023-01-08T09:28:09;8.60;1.00
37530;DHT22;23374;52.758;6.872;2023-01-08T09:30:31;8.60;1.00
37530;DHT22;23374;52.758;6.872;2023-01-08T09:32:57;8.60;1.00
37530;DHT22;23374;52.758;6.872;2023-01-08T09:35:17;8.60;1.00
37530;DHT22;23374;52.758;6.872;2023-01-08T09:37:38;8.60;1.00
37530;DHT22;23374;52.758;6.872;2023-01-08T09:39:58;8.60;1.00
37530;DHT22;23374;52.758;6.872;2023-01-08T09:42:23;8.60;1.00
37530;DHT22;23374;52.758;6.872;2023-01-08T09:44:45;8.60;1.00
37530;DHT22;23374;52.758;6.872;2023-01-08T09:47:31;8.60;1.00
37530;DHT22;23374;52.758;6.872;2023-01-08T09:50:00;8.70;1.00
37530;DHT22;23374;52.758;6.872;2023-01-08T09:52:21;8.70;99.90
37530;DHT22;23374;52.758;6.872;2023-01-08T09:54:41;8.70;99.90
37530;DHT22;23374;52.758;6.872;2023-01-08T09:57:02;8.70;99.90
37530;DHT22;23374;52.758;6.872;2023-01-08T09:59:22;8.70;1.00
37530;DHT22;23374;52.758;6.872;2023-01-08T10:01:43;8.70;99.90
37530;DHT22;23374;52.758;6.872;2023-01-08T10:04:17;8.70;99.90
37530;DHT22;23374;52.758;6.872;2023-01-08T10:06:40;8.70;99.90
37530;DHT22;23374;52.758;6.872;2023-01-08T10:09:00;8.80;99.90
37530;DHT22;23374;52.758;6.872;2023-01-08T10:11:23;8.70;99.90
37530;DHT22;23374;52.758;6.872;2023-01-08T10:13:51;8.80;99.90
37530;DHT22;23374;52.758;6.872;2023-01-08T10:16:26;8.80;89.80
37530;DHT22;23374;52.758;6.872;2023-01-08T10:18:47;8.80;1.00
37530;DHT22;23374;52.758;6.872;2023-01-08T10:21:13;8.80;1.00
37530;DHT22;23374;52.758;6.872;2023-01-08T10:23:33;8.80;68.90
37530;DHT22;23374;52.758;6.872;2023-01-08T10:26:01;8.80;19.50
37530;DHT22;23374;52.758;6.872;2023-01-08T10:28:31;8.80;1.00
37530;DHT22;23374;52.758;6.872;2023-01-08T10:31:06;8.80;1.00
37530;DHT22;23374;52.758;6.872;2023-01-08T10:33:45;8.90;1.00
37530;DHT22;23374;52.758;6.872;2023-01-08T10:36:09;8.90;1.00
37530;DHT22;23374;52.758;6.872;2023-01-08T10:38:35;8.90;1.00
37530;DHT22;23374;52.758;6.872;2023-01-08T10:40:56;8.90;1.00
37530;DHT22;23374;52.758;6.872;2023-01-08T10:44:05;8.90;1.00
37530;DHT22;23374;52.758;6.872;2023-01-08T10:46:42;8.90;99.90
37530;DHT22;23374;52.758;6.872;2023-01-08T10:49:05;9.00;99.90
37530;DHT22;23374;52.758;6.872;2023-01-08T10:51:29;9.00;1.00
37530;DHT22;23374;52.758;6.872;2023-01-08T10:53:52;9.00;99.90
37530;DHT22;23374;52.758;6.872;2023-01-08T10:56:25;9.00;1.00
37530;DHT22;23374;52.758;6.872;2023-01-08T10:58:47;9.00;1.00
37530;DHT22;23374;52.758;6.872;2023-01-08T11:01:22;9.00;1.00
37530;DHT22;23374;52.758;6.872;2023-01-08T11:03:47;9.00;99.90
37530;DHT22;23374;52.758;6.872;2023-01-08T11:06:15;9.00;99.90
37530;DHT22;23374;52.758;6.872;2023-01-08T11:08:38;9.00;99.90
37530;DHT22;23374;52.758;6.872;2023-01-08T11:11:00;9.00;99.90
37530;DHT22;23374;52.758;6.872;2023-01-08T11:13:21;9.10;1.00
37530;DHT22;23374;52.758;6.872;2023-01-08T11:15:42;9.10;1.00
37530;DHT22;23374;52.758;6.872;2023-01-08T11:22:16;9.10;99.90
37530;DHT22;23374;52.758;6.872;2023-01-08T11:24:37;9.10;1.00
37530;DHT22;23374;52.758;6.872;2023-01-08T11:27:50;9.10;1.00
37530;DHT22;23374;52.758;6.872;2023-01-08T11:30:22;9.20;1.00
37530;DHT22;23374;52.758;6.872;2023-01-08T11:33:09;9.20;1.00
37530;DHT22;23374;52.758;6.872;2023-01-08T11:35:53;9.20;1.00
37530;DHT22;23374;52.758;6.872;2023-01-08T11:38:15;9.30;1.00
37530;DHT22;23374;52.758;6.872;2023-01-08T11:40:49;9.30;1.00
37530;DHT22;23374;52.758;6.872;2023-01-08T11:43:29;9.30;1.00
37530;DHT22;23374;52.758;6.872;2023-01-08T11:46:42;9.30;1.00
37530;DHT22;23374;52.758;6.872;2023-01-08T11:52:18;9.40;1.00
37530;DHT22;23374;52.758;6.872;2023-01-08T11:58:00;9.50;1.00
37530;DHT22;23374;52.758;6.872;2023-01-08T12:02:56;9.50;1.00
37530;DHT22;23374;52.758;6.872;2023-01-08T12:06:21;9.40;36.70
37530;DHT22;23374;52.758;6.872;2023-01-08T12:10:25;9.40;1.30
37530;DHT22;23374;52.758;6.872;2023-01-08T12:19:42;9.40;1.00
37530;DHT22;23374;52.758;6.872;2023-01-08T12:25:21;9.40;1.00
37530;DHT22;23374;52.758;6.872;2023-01-08T12:37:56;9.50;59.80
37530;DHT22;23374;52.758;6.872;2023-01-08T12:40:56;9.50;99.90
37530;DHT22;23374;52.758;6.872;2023-01-08T12:46:14;9.60;1.50
37530;DHT22;23374;52.758;6.872;2023-01-08T12:48:36;9.60;49.40
37530;DHT22;23374;52.758;6.872;2023-01-08T12:52:29;9.70;1.00
37530;DHT22;23374;52.758;6.872;2023-01-08T12:55:25;9.70;1.00
37530;DHT22;23374;52.758;6.872;2023-01-08T12:59:46;9.70;1.00
37530;DHT22;23374;52.758;6.872;2023-01-08T13:03:20;9.70;1.00
37530;DHT22;23374;52.758;6.872;2023-01-08T13:05:41;9.80;1.00
37530;DHT22;23374;52.758;6.872;2023-01-08T13:08:38;9.80;1.00
37530;DHT22;23374;52.758;6.872;2023-01-08T13:10:59;9.80;1.00
37530;DHT22;23374;52.758;6.872;2023-01-08T13:14:21;9.80;99.90
37530;DHT22;23374;52.758;6.872;2023-01-08T13:16:45;9.90;1.00
37530;DHT22;23374;52.758;6.872;2023-01-08T13:19:20;9.90;1.00
37530;DHT22;23374;52.758;6.872;2023-01-08T13:21:43;9.90;1.00
37530;DHT22;23374;52.758;6.872;2023-01-08T13:26:46;9.90;1.00
37530;DHT22;23374;52.758;6.872;2023-01-08T13:29:52;9.90;1.00
37530;DHT22;23374;52.758;6.872;2023-01-08T13:32:43;9.90;99.90
37530;DHT22;23374;52.758;6.872;2023-01-08T13:35:47;9.90;1.00
37530;DHT22;23374;52.758;6.872;2023-01-08T13:38:16;9.90;1.00
37530;DHT22;23374;52.758;6.872;2023-01-08T13:41:32;9.90;1.00
37530;DHT22;23374;52.758;6.872;2023-01-08T13:44:11;10.00;1.00
37530;DHT22;23374;52.758;6.872;2023-01-08T13:46:37;10.00;99.90
37530;DHT22;23374;52.758;6.872;2023-01-08T13:49:09;10.00;1.00
37530;DHT22;23374;52.758;6.872;2023-01-08T13:51:44;10.00;99.90
37530;DHT22;23374;52.758;6.872;2023-01-08T13:54:32;10.00;1.00
37530;DHT22;23374;52.758;6.872;2023-01-08T13:57:02;10.00;1.00
37530;DHT22;23374;52.758;6.872;2023-01-08T13:59:51;10.00;1.00
37530;DHT22;23374;52.758;6.872;2023-01-08T14:02:47;10.00;99.90
37530;DHT22;23374;52.758;6.872;2023-01-08T14:05:31;9.90;6.60
37530;DHT22;23374;52.758;6.872;2023-01-08T14:07:56;9.90;99.90
37530;DHT22;23374;52.758;6.872;2023-01-08T14:10:19;10.00;99.90
37530;DHT22;23374;52.758;6.872;2023-01-08T14:12:40;10.00;99.90
37530;DHT22;23374;52.758;6.872;2023-01-08T14:15:00;10.00;99.90
37530;DHT22;23374;52.758;6.872;2023-01-08T14:17:31;10.00;99.90
37530;DHT22;23374;52.758;6.872;2023-01-08T14:19:52;10.00;1.00
37530;DHT22;23374;52.758;6.872;2023-01-08T14:22:23;10.00;99.90
37530;DHT22;23374;52.758;6.872;2023-01-08T14:24:50;10.00;99.90
37530;DHT22;23374;52.758;6.872;2023-01-08T14:27:25;10.00;99.90
37530;DHT22;23374;52.758;6.872;2023-01-08T14:29:46;10.00;27.60
37530;DHT22;23374;52.758;6.872;2023-01-08T14:32:16;10.00;99.90
37530;DHT22;23374;52.758;6.872;2023-01-08T14:34:37;9.90;54.10
37530;DHT22;23374;52.758;6.872;2023-01-08T14:36:59;9.90;99.90
37530;DHT22;23374;52.758;6.872;2023-01-08T14:39:34;9.90;99.90
37530;DHT22;23374;52.758;6.872;2023-01-08T14:41:55;9.90;99.90
37530;DHT22;23374;52.758;6.872;2023-01-08T14:44:39;9.80;17.10
37530;DHT22;23374;52.758;6.872;2023-01-08T14:47:00;9.80;99.90
37530;DHT22;23374;52.758;6.872;2023-01-08T14:49:27;9.90;99.90
37530;DHT22;23374;52.758;6.872;2023-01-08T14:51:49;9.90;99.90
37530;DHT22;23374;52.758;6.872;2023-01-08T14:54:16;9.90;99.90
37530;DHT22;23374;52.758;6.872;2023-01-08T14:56:37;9.90;99.90
37530;DHT22;23374;52.758;6.872;2023-01-08T14:58:59;9.90;99.90
37530;DHT22;23374;52.758;6.872;2023-01-08T15:01:24;9.90;99.90
37530;DHT22;23374;52.758;6.872;2023-01-08T15:03:47;9.80;92.90
37530;DHT22;23374;52.758;6.872;2023-01-08T15:06:09;9.80;99.90
37530;DHT22;23374;52.758;6.872;2023-01-08T15:08:38;9.80;99.90
37530;DHT22;23374;52.758;6.872;2023-01-08T15:14:12;9.70;99.90
37530;DHT22;23374;52.758;6.872;2023-01-08T15:16:39;9.70;99.90
37530;DHT22;23374;52.758;6.872;2023-01-08T15:21:28;9.60;99.90
37530;DHT22;23374;52.758;6.872;2023-01-08T15:23:54;9.50;55.80
37530;DHT22;23374;52.758;6.872;2023-01-08T15:26:15;9.50;99.90
37530;DHT22;23374;52.758;6.872;2023-01-08T15:28:36;9.50;99.90
37530;DHT22;23374;52.758;6.872;2023-01-08T15:30:58;9.40;99.90
37530;DHT22;23374;52.758;6.872;2023-01-08T15:33:24;9.40;99.90
37530;DHT22;23374;52.758;6.872;2023-01-08T15:35:45;9.30;99.90
37530;DHT22;23374;52.758;6.872;2023-01-08T15:38:06;9.30;99.90
37530;DHT22;23374;52.758;6.872;2023-01-08T15:40:27;9.30;99.90
37530;DHT22;23374;52.758;6.872;2023-01-08T15:42:48;9.30;99.90
37530;DHT22;23374;52.758;6.872;2023-01-08T15:45:29;9.20;99.90
37530;DHT22;23374;52.758;6.872;2023-01-08T15:47:53;9.20;99.90
37530;DHT22;23374;52.758;6.872;2023-01-08T15:50:14;9.10;99.90
37530;DHT22;23374;52.758;6.872;2023-01-08T15:52:36;9.10;1.00
37530;DHT22;23374;52.758;6.872;2023-01-08T15:54:59;9.10;1.00
37530;DHT22;23374;52.758;6.872;2023-01-08T15:57:20;9.00;1.00
37530;DHT22;23374;52.758;6.872;2023-01-08T15:59:41;9.00;1.00
37530;DHT22;23374;52.758;6.872;2023-01-08T16:02:01;9.00;1.00
37530;DHT22;23374;52.758;6.872;2023-01-08T16:04:22;9.00;1.00
37530;DHT22;23374;52.758;6.872;2023-01-08T16:06:42;8.90;1.00
37530;DHT22;23374;52.758;6.872;2023-01-08T16:09:03;8.90;1.00
37530;DHT22;23374;52.758;6.872;2023-01-08T16:11:23;8.90;1.00
37530;DHT22;23374;52.758;6.872;2023-01-08T16:13:44;8.90;1.00
37530;DHT22;23374;52.758;6.872;2023-01-08T16:16:13;8.80;1.00
37530;DHT22;23374;52.758;6.872;2023-01-08T16:18:34;8.80;1.00
37530;DHT22;23374;52.758;6.872;2023-01-08T16:20:59;8.80;1.00
37530;DHT22;23374;52.758;6.872;2023-01-08T16:23:23;8.80;1.00
37530;DHT22;23374;52.758;6.872;2023-01-08T16:25:43;8.70;1.00
37530;DHT22;23374;52.758;6.872;2023-01-08T16:28:04;8.70;1.00
37530;DHT22;23374;52.758;6.872;2023-01-08T16:30:24;8.70;1.00
37530;DHT22;23374;52.758;6.872;2023-01-08T16:32:50;8.70;1.00
37530;DHT22;23374;52.758;6.872;2023-01-08T16:35:11;8.60;1.00
37530;DHT22;23374;52.758;6.872;2023-01-08T16:37:32;8.60;1.00
37530;DHT22;23374;52.758;6.872;2023-01-08T16:39:52;8.50;1.00
37530;DHT22;23374;52.758;6.872;2023-01-08T16:42:12;8.50;1.00
37530;DHT22;23374;52.758;6.872;2023-01-08T16:44:35;8.50;1.00